createdAt,value
2022-08-07T00:01:44.754Z,9.00
2022-08-07T00:04:27.951Z,8.33
2022-08-07T00:07:40.928Z,12.00
2022-08-07T00:10:48.367Z,8.33
2022-08-07T00:14:01.864Z,8.33
2022-08-07T00:17:07.213Z,9.00
2022-08-07T00:20:15.605Z,10.67
2022-08-07T00:23:34.874Z,7.33
2022-08-07T00:26:59.000Z,9.33
2022-08-07T00:30:03.243Z,7.33
2022-08-07T00:33:09.077Z,8.67
2022-08-07T00:36:13.742Z,7.33
2022-08-07T00:39:21.076Z,9.00
2022-08-07T00:42:29.279Z,7.00
2022-08-07T00:45:34.043Z,8.67
2022-08-07T00:48:42.015Z,8.00
2022-08-07T00:51:56.802Z,8.00
2022-08-07T00:55:04.776Z,7.33
2022-08-07T00:58:15.263Z,5.33
2022-08-07T01:01:20.434Z,7.33
2022-08-07T01:04:26.352Z,6.33
2022-08-07T01:07:43.500Z,7.67
2022-08-07T01:10:56.547Z,6.67
2022-08-07T01:14:15.454Z,8.33
2022-08-07T01:17:33.687Z,5.33
2022-08-07T01:21:01.363Z,6.00
2022-08-07T01:24:21.229Z,5.00
2022-08-07T01:27:32.287Z,4.33
2022-08-07T01:30:56.015Z,5.33
2022-08-07T01:34:04.203Z,4.00
2022-08-07T01:37:40.694Z,4.33
2022-08-07T01:40:59.576Z,4.00
2022-08-07T01:44:14.365Z,4.00
2022-08-07T01:48:21.404Z,5.00
2022-08-07T01:54:37.779Z,6.67
2022-08-07T01:58:28.922Z,4.33
2022-08-07T02:02:02.386Z,3.33
2022-08-07T02:05:43.486Z,5.00
2022-08-07T02:08:44.741Z,4.33
2022-08-07T02:12:04.677Z,4.67
2022-08-07T02:15:18.059Z,4.33
2022-08-07T02:18:33.361Z,5.33
2022-08-07T02:21:56.528Z,4.00
2022-08-07T02:25:07.437Z,5.00
2022-08-07T02:28:24.410Z,4.00
2022-08-07T02:31:39.270Z,3.33
2022-08-07T02:34:55.716Z,3.33
2022-08-07T02:38:07.608Z,1.00
2022-08-07T02:41:33.434Z,3.33
2022-08-07T02:44:58.414Z,3.33
2022-08-07T02:48:17.596Z,3.00
2022-08-07T02:51:49.768Z,3.33
2022-08-07T02:55:27.251Z,3.00
2022-08-07T02:58:39.828Z,4.33
2022-08-07T03:02:02.220Z,4.67
2022-08-07T03:05:25.557Z,3.00
2022-08-07T03:08:39.874Z,5.00
2022-08-07T03:11:52.287Z,4.33
2022-08-07T03:15:30.198Z,4.00
2022-08-07T03:18:48.091Z,2.33
2022-08-07T03:22:04.632Z,5.00
2022-08-07T03:25:40.331Z,2.67
2022-08-07T03:29:00.228Z,4.00
2022-08-07T03:32:29.584Z,3.00
2022-08-07T03:36:04.639Z,4.67
2022-08-07T03:40:00.141Z,5.00
2022-08-07T03:43:14.440Z,3.67
2022-08-07T03:50:05.790Z,3.67
2022-08-07T03:54:00.547Z,5.00
2022-08-07T03:57:09.081Z,3.00
2022-08-07T04:00:30.263Z,4.67
2022-08-07T04:03:38.817Z,4.00
2022-08-07T04:06:56.050Z,4.67
2022-08-07T04:10:15.377Z,4.67
2022-08-07T04:13:27.768Z,4.33
2022-08-07T04:16:33.595Z,3.67
2022-08-07T04:19:52.667Z,4.67
2022-08-07T04:23:02.090Z,4.00
2022-08-07T04:26:16.900Z,3.00
2022-08-07T04:29:40.259Z,4.33
2022-08-07T04:32:47.989Z,4.00
2022-08-07T04:35:55.655Z,3.67
2022-08-07T04:39:08.677Z,4.33
2022-08-07T04:42:15.516Z,4.00
2022-08-07T04:45:44.534Z,4.00
2022-08-07T04:49:18.043Z,6.00
2022-08-07T04:52:46.688Z,6.00
2022-08-07T04:58:13.817Z,4.00
2022-08-07T05:00:12.442Z,5.00
2022-08-07T05:03:31.089Z,3.67
2022-08-07T05:06:43.338Z,4.67
2022-08-07T05:09:59.150Z,5.00
2022-08-07T05:14:55.702Z,5.00
2022-08-07T05:16:44.140Z,4.00
2022-08-07T05:19:54.295Z,5.00
2022-08-07T05:23:03.606Z,4.00
2022-08-07T05:26:18.680Z,4.33
2022-08-07T05:29:48.076Z,4.33
2022-08-07T05:32:58.268Z,4.00
2022-08-07T05:36:12.255Z,4.00
2022-08-07T05:40:05.631Z,5.00
2022-08-07T05:42:55.916Z,5.33
2022-08-07T05:46:02.632Z,5.00
2022-08-07T05:49:12.563Z,4.00
2022-08-07T05:52:29.832Z,5.00
2022-08-07T05:56:02.439Z,4.33
2022-08-07T05:59:03.982Z,5.00
2022-08-07T06:02:21.491Z,4.33
2022-08-07T06:05:36.587Z,3.33
2022-08-07T06:08:49.188Z,5.00
2022-08-07T06:11:56.548Z,5.33
2022-08-07T06:15:05.411Z,4.00
2022-08-07T06:18:10.794Z,5.00
2022-08-07T06:22:15.159Z,7.00
2022-08-07T06:24:53.061Z,6.33
2022-08-07T06:28:06.526Z,4.33
2022-08-07T06:31:11.963Z,5.33
2022-08-07T06:34:16.277Z,3.67
2022-08-07T06:37:24.991Z,4.00
2022-08-07T06:40:54.679Z,6.00
2022-08-07T06:44:25.019Z,6.00
2022-08-07T06:47:48.184Z,6.00
2022-08-07T06:51:09.467Z,5.00
2022-08-07T06:55:32.302Z,4.33
2022-08-07T06:57:47.771Z,5.67
2022-08-07T07:01:05.895Z,5.33
2022-08-07T07:04:32.639Z,6.33
2022-08-07T07:07:59.734Z,5.00
2022-08-07T07:11:13.808Z,6.00
2022-08-07T07:14:32.471Z,4.33
2022-08-07T07:17:45.397Z,5.33
2022-08-07T07:20:56.978Z,6.00
2022-08-07T07:24:08.691Z,3.00
2022-08-07T07:27:22.044Z,6.00
2022-08-07T07:30:37.730Z,6.00
2022-08-07T07:33:44.579Z,6.00
2022-08-07T07:37:14.992Z,6.33
2022-08-07T07:40:26.754Z,5.00
2022-08-07T07:43:48.146Z,6.00
2022-08-07T07:47:15.970Z,4.67
2022-08-07T07:50:59.833Z,6.00
2022-08-07T07:54:22.652Z,5.00
2022-08-07T07:57:51.501Z,4.00
2022-08-07T08:00:57.343Z,5.67
2022-08-07T08:04:11.619Z,6.33
2022-08-07T08:07:20.175Z,6.00
2022-08-07T08:10:35.589Z,7.33
2022-08-07T08:13:54.614Z,7.00
2022-08-07T08:17:56.563Z,2.67
2022-08-07T08:20:32.226Z,5.33
2022-08-07T08:23:56.162Z,7.33
2022-08-07T08:27:10.351Z,5.67
2022-08-07T08:30:17.480Z,7.00
2022-08-07T08:33:33.384Z,5.67
2022-08-07T08:36:46.178Z,6.00
2022-08-07T08:39:58.232Z,7.00
2022-08-07T08:43:10.581Z,9.00
2022-08-07T08:46:23.064Z,5.00
2022-08-07T08:49:46.400Z,6.00
2022-08-07T08:52:59.008Z,7.00
2022-08-07T08:56:07.327Z,7.00
2022-08-07T08:59:26.773Z,7.00
2022-08-07T09:02:40.335Z,9.00
2022-08-07T09:05:56.875Z,7.67
2022-08-07T09:09:20.810Z,8.00
2022-08-07T09:12:53.178Z,8.00
2022-08-07T09:16:24.119Z,8.67
2022-08-07T09:19:53.744Z,8.00
2022-08-07T09:24:32.611Z,10.00
2022-08-07T09:26:51.108Z,8.33
2022-08-07T09:30:05.534Z,8.67
2022-08-07T09:33:52.639Z,8.67
2022-08-07T09:37:03.190Z,10.67
2022-08-07T09:40:25.331Z,8.67
2022-08-07T09:44:06.446Z,9.00
2022-08-07T09:47:49.518Z,8.33
2022-08-07T09:51:14.524Z,6.00
2022-08-07T09:54:36.888Z,8.67
2022-08-07T09:58:17.118Z,7.00
2022-08-07T10:01:54.393Z,9.00
2022-08-07T10:05:29.684Z,9.33
2022-08-07T10:09:10.672Z,6.00
2022-08-07T10:12:40.419Z,9.00
2022-08-07T10:16:10.788Z,8.33
2022-08-07T10:19:27.388Z,10.67
2022-08-07T10:22:50.841Z,9.00
2022-08-07T10:26:03.476Z,10.33
2022-08-07T10:29:35.124Z,11.00
2022-08-07T10:33:01.386Z,8.67
2022-08-07T10:36:29.900Z,10.67
2022-08-07T10:40:06.007Z,9.33
2022-08-07T10:43:21.258Z,10.67
2022-08-07T10:46:44.386Z,9.33
2022-08-07T10:49:58.254Z,7.33
2022-08-07T10:53:11.298Z,12.00
2022-08-07T10:56:33.218Z,8.00
2022-08-07T10:59:54.792Z,10.00
2022-08-07T11:03:10.973Z,10.33
2022-08-07T11:06:23.515Z,9.67
2022-08-07T11:10:09.714Z,10.00
2022-08-07T11:13:42.485Z,6.67
2022-08-07T11:16:37.884Z,9.67
2022-08-07T11:19:51.884Z,9.67
2022-08-07T11:23:04.325Z,9.00
2022-08-07T11:26:19.295Z,10.67
2022-08-07T11:30:42.925Z,10.00
2022-08-07T11:34:00.216Z,11.33
2022-08-07T11:37:14.717Z,13.33
2022-08-07T11:40:33.068Z,9.67
2022-08-07T11:44:10.720Z,11.67
2022-08-07T11:47:38.685Z,10.33
2022-08-07T11:51:09.783Z,8.33
2022-08-07T11:54:35.552Z,11.67
2022-08-07T11:57:59.790Z,12.67
2022-08-07T12:01:25.861Z,9.67
2022-08-07T12:05:28.575Z,12.00
2022-08-07T12:08:49.830Z,11.00
2022-08-07T12:12:15.786Z,12.00
2022-08-07T12:16:30.422Z,11.00
2022-08-07T12:20:02.581Z,10.33
2022-08-07T12:23:37.416Z,11.67
2022-08-07T12:27:05.068Z,7.00
2022-08-07T12:30:23.470Z,12.00
2022-08-07T12:34:26.003Z,12.33
2022-08-07T12:38:10.147Z,14.00
2022-08-07T12:41:02.551Z,13.00
2022-08-07T12:44:17.269Z,14.00
2022-08-07T12:47:37.263Z,11.00
2022-08-07T12:50:52.975Z,10.33
2022-08-07T12:54:37.838Z,11.67
2022-08-07T12:58:07.433Z,14.33
2022-08-07T13:01:38.027Z,12.00
2022-08-07T13:06:04.820Z,14.67
2022-08-07T13:10:17.771Z,12.67
2022-08-07T13:13:02.572Z,11.67
2022-08-07T13:16:18.172Z,11.33
2022-08-07T13:19:51.592Z,12.00
2022-08-07T13:23:03.936Z,13.33
2022-08-07T13:26:20.010Z,14.00
2022-08-07T13:29:42.494Z,11.33
2022-08-07T13:34:30.353Z,13.00
2022-08-07T13:41:41.340Z,11.00
2022-08-07T13:45:40.586Z,12.00
2022-08-07T13:48:34.532Z,8.67
2022-08-07T13:52:22.300Z,14.00
2022-08-07T13:55:38.495Z,11.67
2022-08-07T13:59:21.549Z,12.00
2022-08-07T14:02:33.622Z,11.67
2022-08-07T14:06:08.449Z,11.67
2022-08-07T14:10:01.992Z,10.33
2022-08-07T14:13:02.645Z,11.00
2022-08-07T14:16:32.990Z,12.67
2022-08-07T14:20:43.530Z,12.00
2022-08-07T14:23:31.498Z,9.33
2022-08-07T14:27:02.418Z,15.00
2022-08-07T14:30:33.579Z,11.33
2022-08-07T14:33:44.148Z,13.00
2022-08-07T14:36:55.851Z,10.33
2022-08-07T14:40:17.750Z,11.33
2022-08-07T14:43:55.257Z,11.00
2022-08-07T14:47:14.229Z,13.67
2022-08-07T14:50:28.333Z,11.00
2022-08-07T14:54:08.731Z,11.67
2022-08-07T14:57:04.838Z,11.33
2022-08-07T15:00:10.062Z,10.33
2022-08-07T15:03:19.660Z,12.00
2022-08-07T15:06:27.388Z,10.67
2022-08-07T15:09:58.818Z,17.67
2022-08-07T15:13:01.437Z,13.00
2022-08-07T15:16:18.356Z,10.00
2022-08-07T15:20:31.324Z,13.67
2022-08-07T15:26:39.538Z,14.00
2022-08-07T15:33:19.476Z,15.00
2022-08-07T15:37:04.045Z,17.33
2022-08-07T15:39:58.310Z,15.00
2022-08-07T15:43:53.196Z,18.00
2022-08-07T15:53:53.090Z,17.00
2022-08-07T15:57:01.917Z,18.67
2022-08-07T16:00:07.767Z,18.33
2022-08-07T16:03:21.653Z,17.67
2022-08-07T16:06:51.370Z,15.33
2022-08-07T16:10:14.214Z,14.33
2022-08-07T16:13:58.805Z,12.00
2022-08-07T16:18:01.816Z,17.00
2022-08-07T16:20:55.260Z,18.67
2022-08-07T16:24:33.648Z,14.00
2022-08-07T16:27:57.143Z,19.67
2022-08-07T16:31:11.797Z,18.00
2022-08-07T16:34:48.144Z,10.67
2022-08-07T16:38:29.593Z,18.00
2022-08-07T16:42:12.787Z,15.00
2022-08-07T16:46:33.543Z,18.00
2022-08-07T16:50:26.584Z,14.00
2022-08-07T16:54:01.644Z,17.33
2022-08-07T16:57:17.177Z,18.00
2022-08-07T17:00:44.597Z,13.00
2022-08-07T17:04:00.110Z,17.33
2022-08-07T17:07:55.636Z,14.33
2022-08-07T17:11:02.288Z,17.00
2022-08-07T17:14:22.091Z,17.00
2022-08-07T17:17:46.019Z,15.67
2022-08-07T17:21:02.291Z,15.00
2022-08-07T17:24:47.664Z,15.67
2022-08-07T17:28:00.524Z,14.33
2022-08-07T17:31:19.641Z,13.67
2022-08-07T17:35:30.801Z,14.33
2022-08-07T17:38:32.117Z,13.33
2022-08-07T17:42:01.496Z,18.67
2022-08-07T17:45:28.837Z,15.33
2022-08-07T17:48:52.092Z,12.67
2022-08-07T17:52:10.533Z,13.00
2022-08-07T17:55:55.795Z,15.67
2022-08-07T17:59:19.883Z,17.00
2022-08-07T18:02:39.502Z,16.00
2022-08-07T18:06:16.804Z,15.67
2022-08-07T18:10:10.769Z,16.00
2022-08-07T18:13:44.937Z,14.00
2022-08-07T18:16:58.165Z,16.67
2022-08-07T18:21:09.847Z,17.00
2022-08-07T18:24:33.923Z,17.67
2022-08-07T18:28:00.570Z,32.00
2022-08-07T18:31:18.558Z,38.75
2022-08-07T18:34:53.213Z,21.67
2022-08-07T18:38:55.881Z,18.00
2022-08-07T18:41:57.872Z,19.00
2022-08-07T18:45:44.819Z,18.67
2022-08-07T18:50:31.745Z,18.00
2022-08-07T18:52:53.847Z,17.00
2022-08-07T18:56:15.266Z,18.33
2022-08-07T18:59:47.685Z,18.00
2022-08-07T19:03:16.086Z,19.00
2022-08-07T19:06:33.848Z,17.33
2022-08-07T19:09:56.027Z,26.67
2022-08-07T19:13:12.109Z,19.00
2022-08-07T19:17:04.479Z,17.00
2022-08-07T19:20:28.807Z,21.33
2022-08-07T19:23:58.961Z,22.67
2022-08-07T19:28:56.402Z,29.33
2022-08-07T19:31:05.119Z,18.00
2022-08-07T19:34:08.771Z,17.33
2022-08-07T19:37:17.428Z,15.00
2022-08-07T19:40:30.864Z,18.33
2022-08-07T19:48:30.835Z,19.00
2022-08-07T19:51:52.953Z,16.67
2022-08-07T19:55:05.484Z,19.67
2022-08-07T19:58:18.540Z,17.33
2022-08-07T20:01:52.209Z,15.33
2022-08-07T20:05:00.482Z,16.00
2022-08-07T20:08:14.386Z,18.67
2022-08-07T20:11:34.177Z,16.33
2022-08-07T20:14:54.110Z,16.33
2022-08-07T20:18:07.023Z,18.00
2022-08-07T20:21:52.631Z,15.67
2022-08-07T20:25:06.288Z,20.33
2022-08-07T20:28:18.354Z,17.67
2022-08-07T20:31:26.133Z,18.00
2022-08-07T20:34:50.280Z,19.33
2022-08-07T20:37:59.001Z,18.00
2022-08-07T20:41:05.577Z,17.00
2022-08-07T20:44:13.033Z,17.67
2022-08-07T20:47:56.364Z,18.67
2022-08-07T20:50:56.707Z,29.00
2022-08-07T20:54:08.588Z,25.00
2022-08-07T20:57:47.512Z,18.33
2022-08-07T21:01:54.881Z,18.00
2022-08-07T21:05:10.240Z,19.67
2022-08-07T21:08:29.359Z,18.00
2022-08-07T21:11:50.154Z,19.67
2022-08-07T21:14:58.048Z,20.33
2022-08-07T21:18:33.633Z,17.33
2022-08-07T21:21:56.754Z,16.67
2022-08-07T21:25:13.350Z,16.00
2022-08-07T21:28:49.299Z,16.67
2022-08-07T21:32:43.928Z,18.33
2022-08-07T21:36:03.857Z,14.33
2022-08-07T21:39:46.853Z,18.00
2022-08-07T21:42:48.624Z,20.00
2022-08-07T21:46:05.063Z,17.33
2022-08-07T21:49:25.694Z,15.67
2022-08-07T21:52:50.418Z,15.67
2022-08-07T21:56:16.769Z,17.00
2022-08-07T22:00:04.266Z,19.00
2022-08-07T22:03:17.080Z,16.33
2022-08-07T22:06:31.257Z,19.00
2022-08-07T22:09:54.379Z,15.67
2022-08-07T22:13:02.950Z,17.67
2022-08-07T22:16:43.461Z,15.67
2022-08-07T22:19:57.247Z,15.67
2022-08-07T22:23:12.443Z,16.67
2022-08-07T22:26:23.267Z,17.67
2022-08-07T22:29:48.533Z,21.67
2022-08-07T22:33:04.871Z,17.33
2022-08-07T22:36:19.121Z,15.33
2022-08-07T22:39:51.943Z,20.00
2022-08-07T22:43:02.396Z,18.00
2022-08-07T22:47:02.301Z,17.00
2022-08-07T22:50:11.191Z,17.00
2022-08-07T22:54:07.332Z,17.00
2022-08-07T22:57:25.852Z,19.67
2022-08-07T23:00:36.088Z,15.33
2022-08-07T23:04:01.959Z,19.00
2022-08-07T23:07:40.092Z,17.00
2022-08-07T23:10:58.093Z,16.67
2022-08-07T23:14:35.081Z,15.67
2022-08-07T23:17:54.818Z,17.00
2022-08-07T23:21:16.476Z,15.67
2022-08-07T23:24:38.764Z,16.00
2022-08-07T23:28:28.979Z,18.33
2022-08-07T23:34:19.413Z,18.33
2022-08-07T23:35:22.950Z,18.33
2022-08-07T23:38:43.221Z,18.33
2022-08-07T23:42:15.535Z,20.33
2022-08-07T23:46:03.053Z,17.67
2022-08-07T23:49:26.088Z,17.67
2022-08-07T23:53:17.462Z,16.33
2022-08-07T23:56:31.129Z,18.00
